Time;durP1;ratioP1;P1;durP2;ratioP2;P2;SDS_P1;SDS_P2;PMS_P1;PMS_P2;Temp;Humidity;BMP_temperature;BMP_pressure;BME280_temperature;BME280_humidity;BME280_pressure;Samples;Min_cycle;Max_cycle;Signal;HPM_P1;HPM_P2
2022/09/15 00:00:57;;;;;;;3.33;2.60;;;;;;;28.16;40.72;101520.84;4197531;28;20483;-61
2022/09/15 00:02:58;;;;;;;3.45;2.70;;;;;;;28.19;40.65;101514.59;4197862;28;20098;-62
2022/09/15 00:04:59;;;;;;;3.28;2.90;;;;;;;28.11;41.03;101510.53;4197581;28;20442;-62
2022/09/15 00:07:01;;;;;;;3.00;2.70;;;;;;;28.15;40.88;101525.66;4197533;28;20545;-62
2022/09/15 00:09:03;;;;;;;5.20;2.95;;;;;;;28.10;41.01;101514.50;4197021;28;20036;-60
2022/09/15 00:11:24;;;;;;;2.90;2.60;;;;;;;28.15;40.86;101525.66;4197510;28;20040;-62
2022/09/15 00:13:25;;;;;;;3.88;2.40;;;;;;;28.17;40.68;101540.22;4197825;28;20426;-61
2022/09/15 00:15:27;;;;;;;3.75;2.80;;;;;;;28.07;40.86;101524.41;4197607;28;20110;-61
2022/09/15 00:17:30;;;;;;;2.95;2.75;;;;;;;28.15;40.94;101545.34;4197766;28;20024;-61
2022/09/15 00:19:31;;;;;;;4.60;2.90;;;;;;;28.15;40.81;101548.16;4197592;28;20098;-61
2022/09/15 00:21:36;;;;;;;4.25;2.92;;;;;;;28.15;40.94;101548.16;4197078;28;20044;-61
2022/09/15 00:23:37;;;;;;;3.60;2.60;;;;;;;28.14;41.32;101546.50;4197672;28;20040;-62
2022/09/15 00:25:44;;;;;;;4.25;2.95;;;;;;;28.14;41.01;101551.31;4206680;28;20460;-62
2022/09/15 00:27:46;;;;;;;3.22;2.92;;;;;;;28.14;41.15;101549.31;4197633;28;20036;-62
2022/09/15 00:29:47;;;;;;;3.25;2.85;;;;;;;28.15;40.80;101564.22;4196377;28;20106;-62
2022/09/15 00:31:49;;;;;;;3.53;3.08;;;;;;;28.12;40.95;101560.88;4196914;28;20045;-62
2022/09/15 00:33:55;;;;;;;7.18;3.38;;;;;;;28.14;41.16;101562.56;4197534;28;20036;-61
2022/09/15 00:36:01;;;;;;;3.92;3.10;;;;;;;27.92;40.95;101527.56;4197584;28;20036;-62
2022/09/15 00:38:02;;;;;;;3.80;3.22;;;;;;;28.14;41.13;101568.19;4197842;28;20044;-62
2022/09/15 00:40:04;;;;;;;4.20;3.78;;;;;;;28.15;41.28;101569.84;4191088;28;20037;-62
2022/09/15 00:42:08;;;;;;;4.15;3.35;;;;;;;28.15;41.11;101581.94;4197268;28;20040;-62
2022/09/15 00:44:16;;;;;;;3.47;3.17;;;;;;;28.14;41.05;101585.91;4197290;28;20033;-62
2022/09/15 00:46:24;;;;;;;3.13;2.75;;;;;;;28.05;41.07;101568.09;4197852;28;20033;-62
2022/09/15 00:48:25;;;;;;;4.00;2.80;;;;;;;28.08;41.25;101575.88;4197479;28;20387;-62
2022/09/15 00:50:33;;;;;;;3.45;2.75;;;;;;;27.99;41.13;101563.69;4197501;28;20102;-62
2022/09/15 00:52:48;;;;;;;3.38;2.97;;;;;;;28.15;41.02;101593.19;4196989;28;20048;-62
2022/09/15 00:55:05;;;;;;;4.78;2.97;;;;;;;28.15;41.28;101598.81;4195121;28;20032;-62
2022/09/15 00:57:13;;;;;;;3.35;3.05;;;;;;;27.99;41.05;101563.69;4180477;28;20087;-62
2022/09/15 00:59:19;;;;;;;2.95;2.67;;;;;;;28.16;41.04;101600.47;4179649;28;20515;-62
2022/09/15 01:01:24;;;;;;;3.97;2.95;;;;;;;28.16;41.10;101606.09;4180682;28;20037;-61
2022/09/15 01:03:29;;;;;;;3.50;3.20;;;;;;;28.15;41.42;101615.69;4180867;28;20045;-62
2022/09/15 01:05:45;;;;;;;4.18;2.50;;;;;;;27.97;41.18;101585.69;4180226;28;20086;-62
2022/09/15 01:07:55;;;;;;;3.63;3.10;;;;;;;28.13;41.30;101623.59;4180158;28;20102;-62
2022/09/15 01:10:07;;;;;;;3.00;2.80;;;;;;;27.90;41.31;101586.09;4180452;28;20098;-62
2022/09/15 01:12:11;;;;;;;3.58;2.33;;;;;;;28.13;41.41;101629.22;4180155;28;20111;-61
2022/09/15 01:14:13;;;;;;;5.05;3.05;;;;;;;28.12;41.36;101628.41;4181013;28;20040;-62
2022/09/15 01:16:45;;;;;;;3.03;2.72;;;;;;;28.10;41.47;101627.06;4181128;28;20111;-61
2022/09/15 01:19:02;;;;;;;3.50;2.55;;;;;;;28.13;41.48;101626.41;4180611;28;20062;-62
2022/09/15 01:21:42;;;;;;;3.58;3.13;;;;;;;28.12;41.41;101627.56;4180489;28;20037;-61
2022/09/15 01:23:57;;;;;;;3.53;3.20;;;;;;;28.15;41.28;101632.56;4195213;28;20109;-61
2022/09/15 01:26:14;;;;;;;4.60;2.80;;;;;;;28.15;41.79;101634.56;4197537;28;20048;-62
2022/09/15 01:28:52;;;;;;;3.40;2.78;;;;;;;28.15;41.59;101635.38;4197264;28;20090;-61
2022/09/15 01:31:31;;;;;;;3.97;3.03;;;;;;;28.14;41.75;101639.34;4196970;28;20041;-61
2022/09/15 01:33:44;;;;;;;3.88;3.08;;;;;;;28.15;41.53;101638.22;4200102;28;20048;-62
2022/09/15 01:35:57;;;;;;;3.10;2.67;;;;;;;28.15;41.65;101643.00;4191552;28;20098;-62
2022/09/15 01:38:05;;;;;;;3.35;3.05;;;;;;;28.11;41.84;101637.16;4191405;28;20067;-62
2022/09/15 01:40:08;;;;;;;3.42;3.13;;;;;;;28.13;41.50;101646.09;4197205;28;20483;-62
2022/09/15 01:42:14;;;;;;;3.97;3.20;;;;;;;27.94;41.88;101609.66;4199125;28;20467;-62
2022/09/15 01:44:23;;;;;;;3.45;2.90;;;;;;;28.10;41.76;101641.13;4200501;28;20040;-62
2022/09/15 01:46:30;;;;;;;5.22;3.30;;;;;;;28.11;41.65;101651.22;4199941;28;20488;-62
2022/09/15 01:48:36;;;;;;;4.57;2.90;;;;;;;28.11;41.88;101649.25;4199651;28;20037;-61
2022/09/15 01:50:48;;;;;;;3.30;2.95;;;;;;;28.12;41.78;101652.88;4210666;28;20028;-60
2022/09/15 01:52:56;;;;;;;3.80;3.50;;;;;;;28.11;41.94;101649.25;4208262;28;20040;-61
2022/09/15 01:55:04;;;;;;;10.50;4.75;;;;;;;28.11;41.77;101651.22;4203738;28;20044;-60
2022/09/15 01:57:05;;;;;;;4.45;3.17;;;;;;;28.14;41.80;101655.41;4203664;28;20049;-61
2022/09/15 01:59:20;;;;;;;3.75;3.10;;;;;;;28.03;41.74;101638.72;4198508;28;20078;-61
2022/09/15 02:01:45;;;;;;;3.65;3.25;;;;;;;28.11;42.16;101654.03;4193993;28;20041;-61
2022/09/15 02:04:27;;;;;;;3.17;2.88;;;;;;;27.99;41.85;101651.75;4201104;28;20049;-61
2022/09/15 02:06:38;;;;;;;4.82;3.58;;;;;;;27.83;42.05;101609.03;4189938;28;20098;-61
2022/09/15 02:08:57;;;;;;;5.13;3.65;;;;;;;27.91;41.72;101637.59;4208796;28;20069;-61
2022/09/15 02:11:12;;;;;;;3.53;2.90;;;;;;;28.11;42.11;101668.13;4214644;28;20044;-62
2022/09/15 02:13:21;;;;;;;4.47;3.42;;;;;;;28.11;41.94;101666.13;4214041;28;20044;-61
2022/09/15 02:15:29;;;;;;;3.30;3.03;;;;;;;28.06;41.88;101654.16;4212952;28;20036;-61
2022/09/15 02:17:34;;;;;;;3.25;2.95;;;;;;;28.14;41.86;101661.88;4216328;28;20479;-61
2022/09/15 02:19:44;;;;;;;3.65;3.35;;;;;;;28.10;41.54;101658.00;4201674;28;20036;-61
2022/09/15 02:22:11;;;;;;;3.10;2.90;;;;;;;28.16;41.93;101673.63;4199909;28;20117;-61
2022/09/15 02:24:18;;;;;;;4.65;3.17;;;;;;;28.05;41.98;101658.94;4199584;28;20041;-61
2022/09/15 02:26:24;;;;;;;5.22;3.10;;;;;;;28.15;41.78;101674.78;4187578;28;20103;-62
2022/09/15 02:28:30;;;;;;;4.68;2.90;;;;;;;28.23;41.63;101688.13;4182624;28;20492;-61
2022/09/15 02:30:35;;;;;;;4.90;3.63;;;;;;;28.17;41.79;101685.72;4182418;28;20037;-62
2022/09/15 02:32:40;;;;;;;5.07;3.22;;;;;;;28.15;41.80;101688.84;4182672;28;20041;-61
2022/09/15 02:34:43;;;;;;;;;;;;;;;28.12;42.34;101693.13;4183077;28;20037;-61
2022/09/15 02:36:45;;;;;;;3.50;3.00;;;;;;;28.20;41.78;101694.38;4192447;28;19916;-61
2022/09/15 02:38:53;;;;;;;4.43;3.15;;;;;;;28.18;42.05;101695.81;4196057;28;20049;-61
2022/09/15 02:40:55;;;;;;;3.47;3.17;;;;;;;28.00;42.02;101663.84;4187249;28;20104;-61
2022/09/15 02:43:04;;;;;;;3.10;2.88;;;;;;;28.17;42.35;101695.00;4204560;28;20044;-62
2022/09/15 02:45:06;;;;;;;5.55;3.60;;;;;;;28.18;42.05;101701.44;4188316;28;20094;-61
2022/09/15 02:47:07;;;;;;;3.35;2.78;;;;;;;28.15;41.96;101694.47;4200236;28;20085;-62
2022/09/15 02:49:09;;;;;;;4.47;3.08;;;;;;;28.07;42.09;101683.94;4205090;28;20492;-62
2022/09/15 02:51:10;;;;;;;3.47;2.72;;;;;;;28.12;42.31;101695.09;4214818;28;20426;-61
2022/09/15 02:53:11;;;;;;;5.38;3.40;;;;;;;28.15;42.26;101702.94;4200253;28;20048;-61
2022/09/15 02:55:13;;;;;;;3.70;3.38;;;;;;;28.13;42.21;101699.56;4198637;28;20475;-63
2022/09/15 02:57:14;;;;;;;4.90;2.88;;;;;;;28.13;42.23;101705.19;4199043;28;20071;-61
2022/09/15 02:59:21;;;;;;;3.65;3.10;;;;;;;28.09;42.17;101707.00;4199228;28;20133;-61
2022/09/15 03:01:30;;;;;;;3.53;3.22;;;;;;;28.02;42.14;101701.75;4198674;28;20044;-62
2022/09/15 03:03:33;;;;;;;4.78;3.33;;;;;;;27.52;42.56;101624.81;4199003;28;20442;-62
2022/09/15 03:05:34;;;;;;;3.55;3.03;;;;;;;28.00;42.16;101700.44;4205230;28;20438;-61
2022/09/15 03:07:39;;;;;;;3.72;2.78;;;;;;;28.01;42.63;101708.53;4203473;28;20062;-62
2022/09/15 03:09:40;;;;;;;4.82;3.25;;;;;;;28.01;42.35;101702.09;4197060;28;20045;-62
2022/09/15 03:11:44;;;;;;;3.15;2.88;;;;;;;28.00;42.23;101703.25;4189763;28;20056;-61
2022/09/15 03:13:46;;;;;;;5.13;3.17;;;;;;;28.00;42.14;101704.06;4209078;28;20036;-61
2022/09/15 03:15:47;;;;;;;4.45;3.70;;;;;;;28.00;42.56;101703.25;4201432;28;20102;-61
2022/09/15 03:17:52;;;;;;;3.40;3.05;;;;;;;27.98;42.42;101705.50;4193539;28;20041;-62
2022/09/15 03:19:53;;;;;;;3.20;2.90;;;;;;;27.96;42.45;101696.56;4196348;28;20492;-61
2022/09/15 03:21:55;;;;;;;3.35;2.80;;;;;;;27.98;42.52;101689.47;4214866;28;20475;-61
2022/09/15 03:23:57;;;;;;;3.70;2.97;;;;;;;28.00;42.65;101697.63;4215003;28;20396;-61
2022/09/15 03:26:02;;;;;;;4.13;3.30;;;;;;;27.85;42.30;101679.84;4212995;28;20048;-61
2022/09/15 03:28:07;;;;;;;4.68;2.88;;;;;;;27.99;42.49;101701.53;4212272;28;20047;-61
2022/09/15 03:30:09;;;;;;;;;;;;;;;27.97;42.34;101712.28;4210945;28;20089;-61
2022/09/15 03:32:10;;;;;;;3.80;3.15;;;;;;;28.02;42.25;101700.94;4199722;28;19943;-61
2022/09/15 03:34:11;;;;;;;3.63;3.28;;;;;;;27.94;42.17;101696.84;4198328;28;20041;-61
2022/09/15 03:36:18;;;;;;;5.47;3.15;;;;;;;27.89;42.38;101690.50;4199959;28;20476;-61
2022/09/15 03:38:20;;;;;;;4.32;3.30;;;;;;;27.98;42.54;101705.50;4196348;28;20040;-61
2022/09/15 03:40:21;;;;;;;4.93;3.33;;;;;;;27.95;42.69;101707.00;4204444;28;20048;-61
2022/09/15 03:42:23;;;;;;;3.80;3.40;;;;;;;27.91;42.43;101705.09;4213003;28;20051;-61
2022/09/15 03:44:24;;;;;;;3.85;2.95;;;;;;;27.92;42.47;101701.13;4203008;28;20041;-61
2022/09/15 03:46:26;;;;;;;3.25;2.97;;;;;;;27.93;42.78;101702.81;4207778;28;20122;-61
2022/09/15 03:48:30;;;;;;;3.50;3.20;;;;;;;27.93;42.49;101705.63;4198149;28;20129;-61
2022/09/15 03:50:33;;;;;;;3.50;3.20;;;;;;;27.95;42.56;101706.13;4197631;28;20044;-61
2022/09/15 03:52:34;;;;;;;3.15;2.85;;;;;;;27.95;42.41;101694.88;4200883;28;20036;-61
2022/09/15 03:54:38;;;;;;;4.07;3.67;;;;;;;27.98;42.64;101709.16;4213091;28;20433;-61
2022/09/15 03:56:46;;;;;;;3.58;3.13;;;;;;;27.99;42.46;101707.16;4213636;28;20040;-62
2022/09/15 03:58:47;;;;;;;4.00;2.90;;;;;;;28.00;42.51;101703.25;4214521;28;20036;-62
2022/09/15 04:00:54;;;;;;;4.90;3.45;;;;;;;27.88;42.56;101694.47;4209568;28;20501;-61
2022/09/15 04:02:55;;;;;;;6.13;3.45;;;;;;;27.88;42.52;101689.66;4206140;28;20098;-61
2022/09/15 04:04:57;;;;;;;3.83;3.53;;;;;;;27.96;42.53;101703.03;4199384;28;20040;-61
2022/09/15 04:07:01;;;;;;;4.15;3.30;;;;;;;27.97;42.46;101706.66;4214235;28;20040;-62
2022/09/15 04:09:02;;;;;;;3.80;3.00;;;;;;;27.95;42.65;101704.16;4185013;28;20369;-61
2022/09/15 04:11:05;;;;;;;3.63;2.97;;;;;;;27.96;42.47;101708.66;4192766;28;20048;-61
2022/09/15 04:13:12;;;;;;;3.63;3.33;;;;;;;27.91;42.54;101696.66;4191479;28;20117;-62
2022/09/15 04:15:17;;;;;;;3.13;2.88;;;;;;;27.97;42.58;101698.22;4197876;28;20506;-61
2022/09/15 04:17:21;;;;;;;4.60;3.40;;;;;;;27.94;42.61;101693.22;4202026;28;20460;-61
2022/09/15 04:19:23;;;;;;;3.30;3.00;;;;;;;27.94;42.80;101698.84;4190293;28;20044;-61
2022/09/15 04:21:25;;;;;;;3.47;3.17;;;;;;;27.97;42.71;101698.22;4197406;28;20094;-61
2022/09/15 04:23:29;;;;;;;7.55;3.45;;;;;;;28.00;42.64;101698.44;4196702;28;20048;-61
2022/09/15 04:25:30;;;;;;;5.77;3.67;;;;;;;28.02;42.69;101700.94;4194688;28;20126;-62
2022/09/15 04:27:34;;;;;;;5.30;3.28;;;;;;;27.98;42.63;101688.63;4194213;28;20101;-62
2022/09/15 04:29:35;;;;;;;4.25;2.95;;;;;;;28.07;42.48;101698.03;4197481;28;20472;-62
2022/09/15 04:31:39;;;;;;;4.63;3.22;;;;;;;27.97;42.54;101675.72;4197278;28;20455;-62
2022/09/15 04:33:42;;;;;;;3.95;3.53;;;;;;;28.20;42.43;101708.44;4197054;28;20578;-62
2022/09/15 04:35:43;;;;;;;3.88;3.25;;;;;;;28.24;42.29;101703.88;4197313;28;20361;-62
2022/09/15 04:37:44;;;;;;;3.67;3.38;;;;;;;28.29;42.24;101706.56;4195216;28;20048;-61
2022/09/15 04:39:46;;;;;;;5.65;3.42;;;;;;;28.32;41.99;101705.94;4195500;28;20041;-63
2022/09/15 04:41:47;;;;;;;5.15;3.30;;;;;;;28.34;42.04;101709.31;4194015;28;20110;-61
2022/09/15 04:43:49;;;;;;;3.60;3.08;;;;;;;28.21;41.92;101679.16;4198975;28;20052;-61
2022/09/15 04:45:53;;;;;;;3.80;3.22;;;;;;;28.38;41.55;101703.06;4196326;28;20434;-61
2022/09/15 04:47:54;;;;;;;4.15;3.45;;;;;;;28.36;42.03;101701.41;4195005;28;20077;-61
2022/09/15 04:49:56;;;;;;;4.57;3.35;;;;;;;28.40;41.93;101700.75;4205695;28;20553;-61
2022/09/15 04:51:57;;;;;;;3.05;2.80;;;;;;;28.41;42.29;101696.78;4196520;28;20045;-61
2022/09/15 04:53:58;;;;;;;3.63;3.03;;;;;;;28.42;41.77;101698.47;4192606;28;20435;-62
2022/09/15 04:56:17;;;;;;;3.72;3.40;;;;;;;28.41;41.63;101697.63;4180201;28;20083;-62
2022/09/15 04:58:18;;;;;;;3.65;3.35;;;;;;;28.30;41.76;101677.28;4180651;28;20053;-62
2022/09/15 05:00:20;;;;;;;4.88;3.30;;;;;;;28.46;41.48;101699.50;4192197;28;20450;-62
2022/09/15 05:02:21;;;;;;;3.42;2.97;;;;;;;28.47;41.70;101698.34;4197351;28;20090;-62
2022/09/15 05:04:22;;;;;;;4.70;3.42;;;;;;;28.41;41.85;101691.16;4197188;28;20036;-61
2022/09/15 05:06:26;;;;;;;4.13;3.15;;;;;;;28.25;41.60;101677.38;4187146;28;20094;-62
2022/09/15 05:08:28;;;;;;;3.42;3.13;;;;;;;28.46;41.63;101702.31;4196892;28;20106;-62
2022/09/15 05:10:29;;;;;;;3.63;3.33;;;;;;;28.46;41.54;101710.78;4196831;28;20048;-62
2022/09/15 05:12:30;;;;;;;3.90;3.15;;;;;;;28.46;41.55;101708.78;4197108;28;20411;-62
2022/09/15 05:14:31;;;;;;;3.65;3.35;;;;;;;28.43;41.66;101703.78;4195745;28;20036;-62
2022/09/15 05:16:33;;;;;;;3.97;3.60;;;;;;;28.44;41.53;101697.00;4198091;28;20037;-61
2022/09/15 05:18:34;;;;;;;3.95;3.40;;;;;;;28.47;41.38;101695.53;4183820;28;20037;-61
2022/09/15 05:20:38;;;;;;;6.43;3.45;;;;;;;28.48;41.43;101702.84;4183646;28;20492;-62
2022/09/15 05:22:43;;;;;;;3.70;3.22;;;;;;;28.47;41.64;101696.38;4183515;28;20099;-62
2022/09/15 05:24:46;;;;;;;3.17;2.88;;;;;;;28.49;41.25;101699.69;4183773;28;20484;-61
2022/09/15 05:26:48;;;;;;;3.70;3.40;;;;;;;28.50;41.12;101703.34;4194175;28;20105;-62
2022/09/15 05:28:52;;;;;;;3.85;3.42;;;;;;;28.50;41.24;101700.53;4200175;28;20033;-61
2022/09/15 05:30:54;;;;;;;3.50;3.20;;;;;;;28.50;41.23;101700.53;4198896;28;20036;-62
2022/09/15 05:32:55;;;;;;;2.85;2.65;;;;;;;28.51;41.39;101696.59;4199548;28;20094;-62
2022/09/15 05:34:57;;;;;;;3.90;3.50;;;;;;;27.91;41.17;101595.41;4199637;28;20036;-62
2022/09/15 05:36:58;;;;;;;3.47;3.17;;;;;;;28.48;41.22;101686.78;4196562;28;20041;-62
2022/09/15 05:39:05;;;;;;;3.47;3.17;;;;;;;28.32;41.68;101662.91;4200204;28;20040;-62
2022/09/15 05:41:12;;;;;;;3.40;3.10;;;;;;;28.49;41.40;101696.03;4199553;28;20472;-61
2022/09/15 05:43:15;;;;;;;4.53;4.13;;;;;;;28.50;41.32;101694.88;4196550;28;20037;-61
2022/09/15 05:45:22;;;;;;;3.60;3.30;;;;;;;28.51;41.69;101696.59;4199548;28;20040;-62
2022/09/15 05:47:24;;;;;;;3.50;3.20;;;;;;;28.52;40.94;101698.25;4199772;28;20109;-62
2022/09/15 05:49:25;;;;;;;5.43;3.38;;;;;;;28.39;41.15;101682.19;4200052;28;20049;-62
2022/09/15 05:51:26;;;;;;;3.53;3.22;;;;;;;28.53;41.17;101697.09;4199812;28;20426;-62
2022/09/15 05:53:29;;;;;;;3.65;3.17;;;;;;;28.51;41.29;101696.59;4199864;28;20033;-62
2022/09/15 05:55:39;;;;;;;3.40;3.10;;;;;;;28.52;41.33;101698.25;4199357;28;20079;-62
2022/09/15 05:57:41;;;;;;;3.58;3.15;;;;;;;28.53;41.24;101695.09;4198530;28;20074;-62
2022/09/15 05:59:42;;;;;;;4.80;3.17;;;;;;;28.53;41.16;101694.28;4198713;28;20424;-62
2022/09/15 06:01:46;;;;;;;3.35;3.05;;;;;;;28.52;41.19;101693.44;4198942;28;20037;-62
2022/09/15 06:03:48;;;;;;;4.50;3.17;;;;;;;28.53;41.44;101697.09;4199464;28;20037;-62
2022/09/15 06:05:58;;;;;;;4.07;2.92;;;;;;;28.52;41.13;101695.44;4199421;28;20284;-62
2022/09/15 06:07:59;;;;;;;4.25;3.33;;;;;;;28.52;41.15;101690.63;4199791;28;20094;-62
2022/09/15 06:10:01;;;;;;;3.40;3.10;;;;;;;28.53;41.08;101691.47;4199504;28;20692;-62
2022/09/15 06:12:03;;;;;;;3.60;3.30;;;;;;;28.52;41.08;101692.63;4199384;28;20052;-61
2022/09/15 06:14:05;;;;;;;3.40;3.10;;;;;;;28.52;41.58;101692.63;4199342;28;20102;-62
2022/09/15 06:16:09;;;;;;;3.38;3.00;;;;;;;28.52;41.34;101686.97;4199320;28;20037;-62
2022/09/15 06:18:10;;;;;;;3.40;3.10;;;;;;;28.53;41.39;101688.63;4199587;28;20036;-61
2022/09/15 06:20:11;;;;;;;3.80;3.20;;;;;;;28.53;41.16;101692.28;4199120;28;20090;-62
2022/09/15 06:22:13;;;;;;;4.70;3.45;;;;;;;28.53;41.26;101695.09;4198826;28;20094;-61
2022/09/15 06:26:35;;;;;;;3.45;3.15;;;;;;;28.54;40.51;101696.75;4198426;28;20110;-62
2022/09/15 06:28:38;;;;;;;3.60;3.30;;;;;;;28.52;40.82;101693.44;4199205;28;20545;-61
2022/09/15 06:30:40;;;;;;;3.40;3.10;;;;;;;28.50;41.26;101692.94;4199384;28;20036;-62
2022/09/15 06:32:41;;;;;;;3.75;3.40;;;;;;;28.53;41.02;101691.47;4205033;28;20032;-62
2022/09/15 06:34:48;;;;;;;3.63;3.33;;;;;;;28.54;41.16;101704.38;4213600;28;20040;-61
2022/09/15 06:36:49;;;;;;;4.70;3.45;;;;;;;28.53;41.33;101702.72;4195827;28;20036;-61
2022/09/15 06:38:51;;;;;;;3.50;3.20;;;;;;;28.54;40.90;101701.56;4194999;28;20090;-62
2022/09/15 06:40:58;;;;;;;3.78;3.40;;;;;;;28.51;41.05;101693.78;4187689;28;20040;-62
2022/09/15 06:43:00;;;;;;;3.58;2.80;;;;;;;28.44;40.80;101682.09;4198848;28;20045;-61
2022/09/15 06:45:03;;;;;;;3.28;2.97;;;;;;;28.52;41.08;101695.44;4199184;28;20040;-62
2022/09/15 06:47:04;;;;;;;3.85;3.40;;;;;;;28.53;41.39;101699.91;4200939;28;20040;-62
2022/09/15 06:49:08;;;;;;;3.25;2.95;;;;;;;28.53;40.89;101695.09;4198995;28;20558;-62
2022/09/15 06:51:11;;;;;;;5.15;3.03;;;;;;;28.53;40.89;101694.28;4198378;28;20110;-62
2022/09/15 06:53:12;;;;;;;3.67;3.10;;;;;;;28.54;40.83;101708.03;4197828;28;20149;-62
2022/09/15 06:55:14;;;;;;;3.15;2.85;;;;;;;28.53;40.80;101697.09;4198890;28;20036;-62
2022/09/15 06:57:15;;;;;;;3.33;3.03;;;;;;;28.53;40.79;101702.72;4198267;28;20427;-62
2022/09/15 06:59:17;;;;;;;3.17;2.90;;;;;;;28.53;41.14;101706.38;4198832;28;20550;-62
2022/09/15 07:01:30;;;;;;;3.65;3.35;;;;;;;28.50;41.30;101700.53;4198500;28;20048;-62
2022/09/15 07:03:31;;;;;;;3.45;3.15;;;;;;;28.53;41.01;101699.91;4195689;28;20040;-62
2022/09/15 07:05:32;;;;;;;3.38;3.08;;;;;;;28.44;40.74;101693.34;4198768;28;20048;-62
2022/09/15 07:07:33;;;;;;;3.90;3.42;;;;;;;28.52;41.18;101709.50;4198626;28;20165;-62
2022/09/15 07:09:35;;;;;;;3.80;3.45;;;;;;;28.50;41.06;101708.97;4198638;28;20484;-62
2022/09/15 07:11:36;;;;;;;3.85;3.45;;;;;;;28.52;40.89;101710.34;4206811;28;20483;-62
2022/09/15 07:13:37;;;;;;;3.38;3.08;;;;;;;28.51;41.24;101713.47;4215468;28;20059;-62
2022/09/15 07:15:39;;;;;;;3.67;3.10;;;;;;;28.51;41.46;101719.09;4215097;28;20074;-62
2022/09/15 07:17:43;;;;;;;3.72;3.42;;;;;;;28.50;41.06;101711.78;4214966;28;20036;-62
2022/09/15 07:19:47;;;;;;;3.50;3.20;;;;;;;28.49;40.91;101708.13;4215213;28;20086;-62
2022/09/15 07:21:49;;;;;;;4.88;3.78;;;;;;;28.50;41.06;101718.28;4213104;28;20425;-62
2022/09/15 07:23:50;;;;;;;3.10;2.80;;;;;;;28.51;41.17;101719.09;4196032;28;20036;-62
2022/09/15 07:26:02;;;;;;;3.63;3.13;;;;;;;28.50;41.09;101715.47;4201514;28;20097;-62
2022/09/15 07:28:03;;;;;;;4.03;3.42;;;;;;;28.50;41.11;101718.28;4214260;28;20081;-61
2022/09/15 07:30:07;;;;;;;3.38;3.08;;;;;;;28.50;41.41;101723.03;4212975;28;20121;-61
2022/09/15 07:32:08;;;;;;;3.80;3.40;;;;;;;28.51;41.41;101724.75;4206321;28;20044;-61
2022/09/15 07:34:09;;;;;;;4.25;3.50;;;;;;;28.50;41.54;101735.16;4199684;28;20043;-61
2022/09/15 07:36:11;;;;;;;3.50;3.20;;;;;;;28.49;41.26;101732.66;4213589;28;20385;-61
2022/09/15 07:38:32;;;;;;;4.47;4.07;;;;;;;28.49;41.60;101739.09;4210639;28;20101;-61
2022/09/15 07:40:34;;;;;;;3.70;3.40;;;;;;;28.50;41.52;101732.34;4196473;28;20044;-61
2022/09/15 07:42:35;;;;;;;3.83;3.45;;;;;;;28.49;41.44;101729.84;4207472;28;20134;-61
2022/09/15 07:44:36;;;;;;;3.72;3.38;;;;;;;28.48;41.64;101742.25;4202002;28;20097;-61
2022/09/15 07:46:43;;;;;;;3.70;3.40;;;;;;;28.47;41.70;101741.41;4212656;28;20509;-60
2022/09/15 07:48:46;;;;;;;4.10;3.47;;;;;;;28.46;41.50;101739.75;4214804;28;20418;-61
2022/09/15 07:50:47;;;;;;;3.72;3.42;;;;;;;28.44;41.69;101739.22;4214718;28;20040;-60
2022/09/15 07:52:48;;;;;;;4.03;3.63;;;;;;;28.46;41.64;101739.75;4212383;28;20048;-61
2022/09/15 07:54:50;;;;;;;3.83;3.50;;;;;;;28.47;41.91;101746.22;4198578;28;20048;-60
2022/09/15 07:56:51;;;;;;;3.92;3.60;;;;;;;28.48;41.82;101745.06;4204390;28;20027;-61
2022/09/15 07:58:55;;;;;;;4.07;3.67;;;;;;;28.46;41.62;101751.03;4200969;28;20079;-60
2022/09/15 08:01:04;;;;;;;4.72;3.42;;;;;;;28.46;41.70;101744.56;4201547;28;20051;-61
2022/09/15 08:03:08;;;;;;;4.28;3.80;;;;;;;28.47;41.67;101749.03;4196534;28;20102;-61
2022/09/15 08:05:09;;;;;;;3.80;3.50;;;;;;;28.30;41.98;101733.56;4197977;28;20044;-63
2022/09/15 08:07:11;;;;;;;3.45;3.15;;;;;;;28.48;41.63;101747.88;4212655;28;20039;-60
2022/09/15 08:09:16;;;;;;;4.45;3.88;;;;;;;28.49;41.63;101743.91;4212157;28;20120;-60
2022/09/15 08:11:18;;;;;;;5.00;3.67;;;;;;;28.50;41.53;101754.00;4210662;28;20102;-62
2022/09/15 08:13:23;;;;;;;3.97;3.42;;;;;;;28.49;41.52;101756.00;4211915;28;20631;-62
2022/09/15 08:15:30;;;;;;;6.13;3.65;;;;;;;28.49;41.52;101756.00;4211171;28;20475;-63
2022/09/15 08:17:33;;;;;;;3.58;3.28;;;;;;;28.49;41.66;101755.16;4194916;28;20101;-62
2022/09/15 08:19:34;;;;;;;3.88;3.42;;;;;;;28.49;41.66;101756.00;4197866;28;20193;-61
2022/09/15 08:21:39;;;;;;;4.57;4.10;;;;;;;28.48;41.66;101754.34;4196932;28;20040;-62
2022/09/15 08:23:46;;;;;;;4.13;3.70;;;;;;;28.49;41.82;101758.81;4207755;28;20453;-62
2022/09/15 08:25:50;;;;;;;4.07;3.40;;;;;;;28.48;41.64;101756.31;4212690;28;20475;-62
2022/09/15 08:27:53;;;;;;;7.78;3.53;;;;;;;28.50;41.89;101768.97;4181194;28;20041;-63
2022/09/15 08:29:57;;;;;;;4.05;3.70;;;;;;;28.45;41.68;101759.75;4197317;28;20415;-63
2022/09/15 08:31:58;;;;;;;3.95;3.65;;;;;;;28.49;41.99;101764.44;4203623;28;20372;-63
2022/09/15 08:34:05;;;;;;;4.32;3.92;;;;;;;28.48;41.65;101771.22;4208905;28;20095;-63
2022/09/15 08:36:11;;;;;;;4.18;3.78;;;;;;;28.49;41.79;101774.88;4210130;28;20069;-63
2022/09/15 08:38:13;;;;;;;4.28;3.85;;;;;;;28.48;41.88;101770.41;4210028;28;20036;-62
2022/09/15 08:40:32;;;;;;;4.28;3.88;;;;;;;28.49;41.93;101783.31;4195901;28;20474;-62
2022/09/15 08:42:33;;;;;;;4.32;3.92;;;;;;;28.49;41.58;101775.72;4197026;28;20126;-63
2022/09/15 08:44:37;;;;;;;4.28;3.88;;;;;;;28.49;41.52;101774.88;4197408;28;20044;-62
2022/09/15 08:47:08;;;;;;;3.70;3.28;;;;;;;28.07;41.61;101717.72;4196820;28;20109;-63
2022/09/15 08:49:29;;;;;;;3.92;3.63;;;;;;;28.47;41.73;101777.19;4167801;28;20083;-62
2022/09/15 08:51:52;;;;;;;4.85;4.07;;;;;;;28.44;41.06;101777.81;4185502;28;20062;-62
2022/09/15 08:54:01;;;;;;;4.57;4.18;;;;;;;28.46;41.51;101783.97;4202245;28;20093;-62
2022/09/15 08:56:10;;;;;;;4.25;3.85;;;;;;;28.46;41.34;101792.41;4215387;28;20044;-61
2022/09/15 08:58:18;;;;;;;5.80;4.25;;;;;;;28.46;41.54;101795.22;4217566;28;20036;-61
2022/09/15 09:00:20;;;;;;;3.88;3.50;;;;;;;28.44;41.55;101797.50;4210500;28;20048;-62
2022/09/15 09:02:39;;;;;;;4.97;4.47;;;;;;;28.44;41.75;101803.13;4186771;28;20423;-62
2022/09/15 09:05:21;;;;;;;4.43;3.88;;;;;;;28.41;41.19;101798.13;4184224;28;20178;-62
2022/09/15 09:07:45;;;;;;;4.43;4.03;;;;;;;28.44;41.57;101803.97;4195112;28;20048;-62
2022/09/15 09:09:58;;;;;;;4.75;4.07;;;;;;;28.42;41.64;101788.56;4200972;28;20105;-61
2022/09/15 09:12:24;;;;;;;6.32;4.40;;;;;;;28.40;41.47;101790.84;4207324;28;20109;-61
2022/09/15 09:14:37;;;;;;;6.78;4.10;;;;;;;28.41;41.72;101795.31;4215825;28;20036;-62
2022/09/15 09:16:44;;;;;;;4.20;3.72;;;;;;;28.42;41.84;101794.19;4214705;28;20429;-61
2022/09/15 09:19:15;;;;;;;5.15;4.03;;;;;;;28.26;41.43;101776.72;4184085;28;20443;-62
2022/09/15 09:21:23;;;;;;;4.47;3.80;;;;;;;28.39;41.60;101800.44;4186538;28;20178;-61
2022/09/15 09:23:28;;;;;;;5.30;4.30;;;;;;;28.37;41.51;101797.94;4215075;28;20096;-62
2022/09/15 09:25:30;;;;;;;4.78;4.32;;;;;;;28.39;41.04;101800.44;4217254;28;20540;-61
2022/09/15 09:27:33;;;;;;;4.97;4.50;;;;;;;28.38;41.52;101807.22;4214959;28;20483;-62
2022/09/15 09:30:39;;;;;;;7.10;4.20;;;;;;;28.31;41.26;101811.22;4199337;28;20094;-61
2022/09/15 09:33:03;;;;;;;5.00;3.95;;;;;;;28.35;41.45;101817.94;4153341;28;20071;-62
2022/09/15 09:35:36;;;;;;;5.15;4.65;;;;;;;28.35;41.54;101817.94;4179337;28;20114;-62
2022/09/15 09:37:38;;;;;;;4.18;3.80;;;;;;;28.39;41.36;101812.53;4179379;28;20080;-61
2022/09/15 09:39:48;;;;;;;4.78;4.38;;;;;;;28.39;41.45;101820.13;4166700;28;20092;-62
2022/09/15 09:41:55;;;;;;;4.55;4.15;;;;;;;28.26;41.32;101804.84;4163861;28;20033;-62
2022/09/15 09:43:57;;;;;;;5.78;4.03;;;;;;;28.34;41.30;101807.81;4175774;28;20106;-62
2022/09/15 09:46:01;;;;;;;4.50;4.10;;;;;;;28.35;41.19;101812.31;4198599;28;20040;-62
2022/09/15 09:48:14;;;;;;;4.18;3.78;;;;;;;28.24;41.73;101799.56;4214638;28;20036;-64
2022/09/15 09:50:38;;;;;;;4.63;4.10;;;;;;;28.19;41.54;101791.22;4216339;28;20036;-60